createdAt,value
2023-02-11T00:01:18.854Z,62.91
2023-02-11T00:04:22.481Z,62.86
2023-02-11T00:07:14.067Z,62.99
2023-02-11T00:09:52.980Z,62.70
2023-02-11T00:12:30.031Z,62.76
2023-02-11T00:15:08.319Z,62.85
2023-02-11T00:17:37.329Z,62.90
2023-02-11T00:20:08.362Z,63.09
2023-02-11T00:22:37.967Z,63.35
2023-02-11T00:25:15.289Z,63.31
2023-02-11T00:27:59.979Z,63.95
2023-02-11T00:30:35.735Z,63.06
2023-02-11T00:33:09.365Z,62.97
2023-02-11T00:35:56.022Z,63.37
2023-02-11T00:38:25.844Z,63.31
2023-02-11T00:40:55.864Z,63.52
2023-02-11T00:43:30.939Z,63.73
2023-02-11T00:46:00.761Z,63.49
2023-02-11T00:48:50.797Z,63.48
2023-02-11T00:51:30.725Z,63.14
2023-02-11T00:54:07.090Z,62.96
2023-02-11T00:56:35.676Z,63.18
2023-02-11T00:59:06.241Z,63.01
2023-02-11T01:01:55.738Z,62.94
2023-02-11T01:05:03.396Z,63.42
2023-02-11T01:07:52.995Z,63.00
2023-02-11T01:10:54.324Z,63.19
2023-02-11T01:13:25.139Z,63.04
2023-02-11T01:16:00.046Z,63.01
2023-02-11T01:19:07.763Z,63.48
2023-02-11T01:21:55.441Z,63.58
2023-02-11T01:24:24.110Z,63.38
2023-02-11T01:27:06.803Z,63.63
2023-02-11T01:29:34.674Z,63.82
2023-02-11T01:32:06.430Z,63.95
2023-02-11T01:34:35.855Z,63.85
2023-02-11T01:37:03.793Z,64.10
2023-02-11T01:39:34.843Z,63.65
2023-02-11T01:42:03.244Z,64.29
2023-02-11T01:44:36.620Z,63.62
2023-02-11T01:47:19.058Z,63.98
2023-02-11T01:49:56.366Z,64.49
2023-02-11T01:52:35.277Z,64.31
2023-02-11T01:55:19.048Z,64.21
2023-02-11T01:57:52.131Z,63.87
2023-02-11T02:00:25.605Z,63.85
2023-02-11T02:03:06.778Z,63.62
2023-02-11T02:05:44.603Z,63.64
2023-02-11T02:08:33.707Z,63.60
2023-02-11T02:11:23.925Z,63.56
2023-02-11T02:14:31.701Z,63.43
2023-02-11T02:17:20.528Z,63.28
2023-02-11T02:20:16.279Z,63.23
2023-02-11T02:23:15.394Z,62.80
2023-02-11T02:26:15.552Z,62.96
2023-02-11T02:29:26.816Z,62.89
2023-02-11T02:32:41.497Z,63.02
2023-02-11T02:35:49.484Z,62.86
2023-02-11T02:38:52.121Z,63.21
2023-02-11T02:41:42.303Z,63.02
2023-02-11T02:44:50.783Z,63.06
2023-02-11T02:47:48.411Z,62.88
2023-02-11T02:51:13.020Z,63.06
2023-02-11T02:54:22.516Z,63.11
2023-02-11T02:57:07.721Z,63.02
2023-02-11T02:59:58.112Z,63.34
2023-02-11T03:02:33.801Z,62.96
2023-02-11T03:05:18.476Z,63.07
2023-02-11T03:08:05.787Z,63.12
2023-02-11T03:10:41.295Z,63.08
2023-02-11T03:13:10.187Z,63.00
2023-02-11T03:15:43.600Z,62.73
2023-02-11T03:18:15.630Z,63.20
2023-02-11T03:20:50.516Z,63.41
2023-02-11T03:23:28.757Z,63.13
2023-02-11T03:26:09.469Z,63.27
2023-02-11T03:28:46.312Z,63.30
2023-02-11T03:31:24.151Z,63.34
2023-02-11T03:34:04.684Z,63.29
2023-02-11T03:36:41.189Z,63.14
2023-02-11T03:39:11.346Z,63.09
2023-02-11T03:41:42.229Z,63.34
2023-02-11T03:44:12.961Z,63.28
2023-02-11T03:46:44.810Z,63.39
2023-02-11T03:49:17.792Z,63.39
2023-02-11T03:51:48.853Z,63.08
2023-02-11T03:54:21.383Z,62.99
2023-02-11T03:56:52.885Z,63.30
2023-02-11T03:59:21.394Z,63.26
2023-02-11T04:01:49.510Z,63.28
2023-02-11T04:04:18.195Z,62.94
2023-02-11T04:06:47.025Z,62.94
2023-02-11T04:09:15.256Z,62.79
2023-02-11T04:11:44.276Z,63.88
2023-02-11T04:14:12.142Z,63.54
2023-02-11T04:16:40.210Z,63.34
2023-02-11T04:19:08.626Z,63.23
2023-02-11T04:21:36.548Z,63.28
2023-02-11T04:24:05.421Z,63.07
2023-02-11T04:26:35.084Z,62.90
2023-02-11T04:29:03.843Z,62.79
2023-02-11T04:31:31.881Z,63.18
2023-02-11T04:33:59.785Z,62.96
2023-02-11T04:36:30.212Z,62.97
2023-02-11T04:38:58.377Z,62.92
2023-02-11T04:41:26.523Z,62.98
2023-02-11T04:43:54.340Z,63.07
2023-02-11T04:46:22.929Z,63.09
2023-02-11T04:48:50.832Z,63.69
2023-02-11T04:51:19.419Z,63.33
2023-02-11T04:53:47.547Z,63.17
2023-02-11T04:56:15.968Z,63.25
2023-02-11T04:58:44.055Z,63.50
2023-02-11T05:01:15.485Z,64.01
2023-02-11T05:03:43.770Z,63.94
2023-02-11T05:06:11.933Z,64.81
2023-02-11T05:08:41.541Z,63.97
2023-02-11T05:11:17.742Z,63.24
2023-02-11T05:13:45.871Z,63.64
2023-02-11T05:16:14.918Z,63.69
2023-02-11T05:18:44.268Z,63.43
2023-02-11T05:21:15.947Z,63.25
2023-02-11T05:23:45.634Z,63.14
2023-02-11T05:26:14.687Z,62.90
2023-02-11T05:28:43.212Z,62.94
2023-02-11T05:31:12.073Z,62.99
2023-02-11T05:33:40.597Z,62.99
2023-02-11T05:36:13.476Z,63.04
2023-02-11T05:38:43.299Z,62.67
2023-02-11T05:41:12.243Z,62.96
2023-02-11T05:43:40.246Z,62.77
2023-02-11T05:46:15.835Z,62.69
2023-02-11T05:48:44.152Z,63.14
2023-02-11T05:51:16.097Z,62.96
2023-02-11T05:53:44.309Z,63.05
2023-02-11T05:56:12.557Z,62.82
2023-02-11T05:58:41.740Z,63.07
2023-02-11T06:01:09.951Z,63.05
2023-02-11T06:03:39.727Z,62.81
2023-02-11T06:06:12.247Z,62.82
2023-02-11T06:08:41.009Z,62.19
2023-02-11T06:11:09.332Z,62.25
2023-02-11T06:13:37.234Z,62.12
2023-02-11T06:16:05.441Z,61.79
2023-02-11T06:18:34.400Z,62.47
2023-02-11T06:21:16.718Z,62.04
2023-02-11T06:23:53.088Z,62.39
2023-02-11T06:26:23.489Z,62.19
2023-02-11T06:28:51.422Z,61.79
2023-02-11T06:31:19.708Z,61.99
2023-02-11T06:33:47.705Z,61.85
2023-02-11T06:36:18.952Z,61.21
2023-02-11T06:38:47.584Z,61.56
2023-02-11T06:41:20.093Z,61.53
2023-02-11T06:43:49.008Z,61.53
2023-02-11T06:46:16.855Z,61.35
2023-02-11T06:48:45.160Z,61.52
2023-02-11T06:51:14.473Z,60.96
2023-02-11T06:53:45.516Z,60.96
2023-02-11T06:56:19.583Z,61.45
2023-02-11T06:58:47.821Z,61.41
2023-02-11T07:01:16.707Z,61.87
2023-02-11T07:03:45.953Z,62.27
2023-02-11T07:06:17.368Z,61.97
2023-02-11T07:08:47.275Z,61.97
2023-02-11T07:11:19.014Z,61.99
2023-02-11T07:13:48.077Z,62.03
2023-02-11T07:16:17.994Z,61.90
2023-02-11T07:18:47.620Z,62.70
2023-02-11T07:21:18.730Z,62.33
2023-02-11T07:23:48.587Z,62.58
2023-02-11T07:26:21.163Z,62.93
2023-02-11T07:28:49.988Z,62.69
2023-02-11T07:31:21.888Z,62.26
2023-02-11T07:33:52.371Z,61.39
2023-02-11T07:36:20.647Z,61.37
2023-02-11T07:38:48.764Z,61.44
2023-02-11T07:41:19.878Z,60.83
2023-02-11T07:43:48.461Z,61.06
2023-02-11T07:46:21.113Z,60.47
2023-02-11T07:48:49.187Z,61.03
2023-02-11T07:51:20.432Z,60.82
2023-02-11T07:53:50.220Z,60.95
2023-02-11T07:56:19.516Z,60.71
2023-02-11T07:58:48.376Z,60.48
2023-02-11T08:01:25.101Z,60.06
2023-02-11T08:03:53.311Z,60.13
2023-02-11T08:06:24.144Z,59.84
2023-02-11T08:08:53.099Z,59.55
2023-02-11T08:11:24.277Z,59.12
2023-02-11T08:13:53.031Z,59.36
2023-02-11T08:16:27.799Z,59.18
2023-02-11T08:18:58.298Z,59.20
2023-02-11T08:21:27.037Z,59.01
2023-02-11T08:23:55.310Z,58.87
2023-02-11T08:26:26.350Z,59.33
2023-02-11T08:28:56.651Z,59.17
2023-02-11T08:31:30.076Z,58.97
2023-02-11T08:33:58.340Z,59.21
2023-02-11T08:36:29.722Z,59.10
2023-02-11T08:39:15.854Z,59.83
2023-02-11T08:41:48.880Z,59.62
2023-02-11T08:44:18.536Z,59.16
2023-02-11T08:46:47.434Z,59.16
2023-02-11T08:49:15.685Z,59.17
2023-02-11T08:51:51.507Z,59.26
2023-02-11T08:54:24.821Z,58.99
2023-02-11T08:57:16.444Z,58.78
2023-02-11T08:59:51.715Z,58.70
2023-02-11T09:02:20.110Z,58.80
2023-02-11T09:05:02.078Z,58.38
2023-02-11T09:07:50.586Z,57.86
2023-02-11T09:10:38.391Z,57.04
2023-02-11T09:13:09.472Z,57.51
2023-02-11T09:15:41.637Z,58.02
2023-02-11T09:18:31.201Z,57.12
2023-02-11T09:21:08.372Z,57.19
2023-02-11T09:23:38.247Z,55.10
2023-02-11T09:26:11.448Z,55.11
2023-02-11T09:28:49.310Z,55.85
2023-02-11T09:31:21.189Z,56.47
2023-02-11T09:33:55.216Z,56.61
2023-02-11T09:36:35.611Z,56.71
2023-02-11T09:39:38.607Z,56.80
2023-02-11T09:42:45.901Z,56.48
2023-02-11T09:45:48.024Z,55.58
2023-02-11T09:48:37.123Z,55.16
2023-02-11T09:51:33.353Z,55.16
2023-02-11T09:54:41.091Z,55.44
2023-02-11T09:57:26.566Z,54.43
2023-02-11T10:00:18.940Z,52.60
2023-02-11T10:03:17.651Z,53.76
2023-02-11T10:06:21.512Z,52.93
2023-02-11T10:09:28.901Z,53.11
2023-02-11T10:12:32.004Z,53.18
2023-02-11T10:15:32.536Z,53.30
2023-02-11T10:18:21.273Z,51.99
2023-02-11T10:21:22.537Z,52.30
2023-02-11T10:24:02.144Z,52.58
2023-02-11T10:27:01.137Z,51.93
2023-02-11T10:29:38.652Z,50.97
2023-02-11T10:32:31.748Z,50.98
2023-02-11T10:35:05.445Z,50.35
2023-02-11T10:37:33.459Z,50.74
2023-02-11T10:40:03.063Z,50.49
2023-02-11T10:42:31.619Z,49.59
2023-02-11T10:45:04.295Z,49.46
2023-02-11T10:47:37.727Z,49.40
2023-02-11T10:50:26.090Z,49.76
2023-02-11T10:53:21.282Z,50.21
2023-02-11T10:55:53.252Z,49.82
2023-02-11T10:58:28.806Z,48.54
2023-02-11T11:00:59.720Z,47.73
2023-02-11T11:03:32.356Z,47.67
2023-02-11T11:06:04.075Z,46.53
2023-02-11T11:08:48.991Z,45.68
2023-02-11T11:11:20.773Z,46.77
2023-02-11T11:13:59.827Z,46.73
2023-02-11T11:16:32.485Z,46.62
2023-02-11T11:19:20.349Z,45.96
2023-02-11T11:21:54.028Z,46.45
2023-02-11T11:24:29.453Z,46.49
2023-02-11T11:27:01.454Z,46.24
2023-02-11T11:29:37.503Z,46.14
2023-02-11T11:32:13.308Z,45.75
2023-02-11T11:34:48.620Z,45.99
2023-02-11T11:37:32.401Z,46.21
2023-02-11T11:40:08.039Z,46.35
2023-02-11T11:42:39.004Z,45.84
2023-02-11T11:45:27.302Z,46.11
2023-02-11T11:48:05.173Z,46.70
2023-02-11T11:50:40.103Z,46.46
2023-02-11T11:53:27.747Z,46.94
2023-02-11T11:56:14.026Z,47.26
2023-02-11T11:58:42.499Z,46.67
2023-02-11T12:01:28.803Z,46.75
2023-02-11T12:04:19.471Z,46.33
2023-02-11T12:07:17.714Z,45.86
2023-02-11T12:10:09.362Z,45.92
2023-02-11T12:13:09.608Z,45.33
2023-02-11T12:15:57.347Z,45.36
2023-02-11T12:18:49.814Z,45.39
2023-02-11T12:21:33.582Z,44.46
2023-02-11T12:24:30.304Z,42.76
2023-02-11T12:27:16.807Z,43.30
2023-02-11T12:30:14.790Z,42.88
2023-02-11T12:33:10.769Z,42.32
2023-02-11T12:35:55.580Z,42.35
2023-02-11T12:38:45.971Z,42.31
2023-02-11T12:42:01.157Z,42.56
2023-02-11T12:44:52.899Z,43.10
2023-02-11T12:47:35.629Z,43.14
2023-02-11T12:50:19.748Z,42.55
2023-02-11T12:53:23.280Z,43.13
2023-02-11T12:55:58.496Z,42.63
2023-02-11T12:58:44.155Z,41.95
2023-02-11T13:01:21.178Z,41.87
2023-02-11T13:03:58.981Z,39.47
2023-02-11T13:06:38.718Z,38.64
2023-02-11T13:09:18.829Z,38.38
2023-02-11T13:11:52.279Z,38.32
2023-02-11T13:14:35.187Z,39.14
2023-02-11T13:17:16.124Z,37.10
2023-02-11T13:19:50.837Z,36.82
2023-02-11T13:22:26.771Z,36.10
2023-02-11T13:25:23.080Z,36.10
2023-02-11T13:28:03.896Z,36.89
2023-02-11T13:30:35.310Z,36.99
2023-02-11T13:33:07.366Z,37.85
2023-02-11T13:35:49.022Z,37.80
2023-02-11T13:38:22.173Z,37.68
2023-02-11T13:41:07.437Z,38.16
2023-02-11T13:43:37.034Z,38.88
2023-02-11T13:46:10.181Z,40.26
2023-02-11T13:48:54.613Z,40.28
2023-02-11T13:51:38.532Z,40.16
2023-02-11T13:54:08.597Z,39.72
2023-02-11T13:56:40.540Z,40.66
2023-02-11T13:59:44.294Z,42.10
2023-02-11T14:02:46.170Z,42.84
2023-02-11T14:05:46.283Z,43.49
2023-02-11T14:08:39.123Z,43.30
2023-02-11T14:11:29.529Z,43.72
2023-02-11T14:14:05.293Z,43.61
2023-02-11T14:16:38.411Z,43.11
2023-02-11T14:19:08.828Z,43.15
2023-02-11T14:21:40.376Z,43.44
2023-02-11T14:24:48.076Z,43.52
2023-02-11T14:27:25.377Z,43.47
2023-02-11T14:30:28.052Z,43.03
2023-02-11T14:33:22.861Z,43.41
2023-02-11T14:36:09.106Z,43.56
2023-02-11T14:38:53.912Z,43.81
2023-02-11T14:41:26.288Z,44.50
2023-02-11T14:44:15.963Z,44.75
2023-02-11T14:46:46.595Z,45.08
2023-02-11T14:49:25.867Z,45.47
2023-02-11T14:51:59.939Z,45.45
2023-02-11T14:54:29.161Z,45.54
2023-02-11T14:57:18.814Z,45.73
2023-02-11T15:00:02.940Z,45.33
2023-02-11T15:02:37.865Z,45.18
2023-02-11T15:05:22.505Z,45.59
2023-02-11T15:07:54.982Z,46.06
2023-02-11T15:10:38.501Z,46.30
2023-02-11T15:13:07.659Z,48.32
2023-02-11T15:15:40.955Z,48.18
2023-02-11T15:18:17.364Z,48.88
2023-02-11T15:20:45.410Z,49.52
2023-02-11T15:23:22.702Z,49.62
2023-02-11T15:25:55.811Z,49.39
2023-02-11T15:28:28.988Z,51.05
2023-02-11T15:31:15.495Z,50.28
2023-02-11T15:33:43.584Z,50.77
2023-02-11T15:36:13.990Z,50.77
2023-02-11T15:38:42.176Z,50.29
2023-02-11T15:41:37.219Z,51.23
2023-02-11T15:44:30.851Z,50.67
2023-02-11T15:47:00.454Z,51.49
2023-02-11T15:49:37.320Z,50.91
2023-02-11T15:52:12.760Z,51.33
2023-02-11T15:54:46.846Z,52.42
2023-02-11T15:57:35.025Z,51.51
2023-02-11T16:00:07.178Z,52.69
2023-02-11T16:02:53.998Z,57.73
2023-02-11T16:05:37.411Z,59.16
2023-02-11T16:08:34.261Z,59.68
2023-02-11T16:11:46.545Z,59.75
2023-02-11T16:14:48.641Z,59.99
2023-02-11T16:17:33.624Z,60.19
2023-02-11T16:20:13.057Z,59.95
2023-02-11T16:22:42.677Z,60.30
2023-02-11T16:25:35.521Z,60.23
2023-02-11T16:28:22.488Z,60.92
2023-02-11T16:30:56.234Z,59.27
2023-02-11T16:33:25.972Z,59.56
2023-02-11T16:35:56.266Z,60.76
2023-02-11T16:38:24.872Z,60.93
2023-02-11T16:41:12.912Z,61.80
2023-02-11T16:44:01.924Z,61.44
2023-02-11T16:47:02.832Z,60.00
2023-02-11T16:49:40.324Z,60.00
2023-02-11T16:52:17.895Z,59.12
2023-02-11T16:54:59.804Z,58.87
2023-02-11T16:57:30.354Z,58.35
2023-02-11T17:00:39.097Z,57.62
2023-02-11T17:03:38.153Z,57.78
2023-02-11T17:06:18.409Z,58.44
2023-02-11T17:09:08.902Z,58.15
2023-02-11T17:12:05.240Z,59.51
2023-02-11T17:14:33.251Z,62.61
2023-02-11T17:17:01.735Z,63.45
2023-02-11T17:19:29.809Z,62.10
2023-02-11T17:21:57.759Z,61.32
2023-02-11T17:24:25.625Z,60.71
2023-02-11T17:26:54.704Z,59.91
2023-02-11T17:29:25.362Z,59.88
2023-02-11T17:31:53.794Z,59.73
2023-02-11T17:34:22.622Z,59.65
2023-02-11T17:36:50.850Z,59.99
2023-02-11T17:39:20.921Z,59.88
2023-02-11T17:41:48.797Z,61.28
2023-02-11T17:44:16.827Z,61.96
2023-02-11T17:46:44.913Z,62.51
2023-02-11T17:49:12.974Z,65.81
2023-02-11T17:51:41.080Z,66.44
2023-02-11T17:54:12.572Z,65.99
2023-02-11T17:56:41.016Z,66.96
2023-02-11T17:59:11.042Z,66.47
2023-02-11T18:01:40.177Z,65.81
2023-02-11T18:04:13.812Z,65.06
2023-02-11T18:06:47.280Z,64.99
2023-02-11T18:09:15.602Z,64.14
2023-02-11T18:11:43.454Z,63.38
2023-02-11T18:14:11.704Z,64.73
2023-02-11T18:16:43.142Z,63.74
2023-02-11T18:19:12.683Z,64.89
2023-02-11T18:21:40.710Z,63.54
2023-02-11T18:24:08.999Z,64.10
2023-02-11T18:26:36.934Z,63.65
2023-02-11T18:29:06.137Z,63.88
2023-02-11T18:31:36.344Z,63.55
2023-02-11T18:34:07.682Z,63.83
2023-02-11T18:36:35.844Z,64.54
2023-02-11T18:39:04.857Z,64.00
2023-02-11T18:41:32.991Z,63.76
2023-02-11T18:44:03.202Z,64.43
2023-02-11T18:46:31.490Z,63.48
2023-02-11T18:49:00.784Z,66.13
2023-02-11T18:51:31.745Z,67.45
2023-02-11T18:54:00.419Z,66.77
2023-02-11T18:56:28.247Z,66.75
2023-02-11T18:58:57.900Z,66.38
2023-02-11T19:01:27.693Z,66.45
2023-02-11T19:03:58.349Z,66.45
2023-02-11T19:06:27.977Z,66.32
2023-02-11T19:08:59.929Z,66.96
2023-02-11T19:11:46.472Z,65.49
2023-02-11T19:14:24.905Z,65.63
2023-02-11T19:16:56.407Z,65.61
2023-02-11T19:19:28.190Z,65.71
2023-02-11T19:21:57.375Z,65.50
2023-02-11T19:24:25.747Z,65.85
2023-02-11T19:26:57.202Z,65.83
2023-02-11T19:29:26.032Z,66.65
2023-02-11T19:31:56.720Z,65.63
2023-02-11T19:34:24.768Z,66.26
2023-02-11T19:36:54.191Z,65.91
2023-02-11T19:39:24.636Z,65.25
2023-02-11T19:41:53.202Z,64.87
2023-02-11T19:44:21.119Z,64.71
2023-02-11T19:46:50.157Z,65.37
2023-02-11T19:49:23.012Z,64.78
2023-02-11T19:51:51.447Z,64.55
2023-02-11T19:54:20.320Z,64.97
2023-02-11T19:56:48.775Z,64.28
2023-02-11T19:59:16.676Z,64.48
2023-02-11T20:01:47.583Z,64.82
2023-02-11T20:04:17.235Z,65.21
2023-02-11T20:06:47.977Z,66.04
2023-02-11T20:09:16.163Z,65.09
2023-02-11T20:11:44.258Z,65.21
2023-02-11T20:14:15.139Z,64.99
2023-02-11T20:16:48.996Z,65.78
2023-02-11T20:19:20.404Z,65.41
2023-02-11T20:21:51.634Z,65.05
2023-02-11T20:24:20.279Z,65.21
2023-02-11T20:26:48.906Z,64.94
2023-02-11T20:29:18.169Z,65.41
2023-02-11T20:31:46.308Z,65.32
2023-02-11T20:34:15.076Z,64.92
2023-02-11T20:36:42.895Z,64.89
2023-02-11T20:39:11.017Z,65.68
2023-02-11T20:41:40.608Z,66.26
2023-02-11T20:44:10.580Z,66.45
2023-02-11T20:46:42.474Z,67.23
2023-02-11T20:49:13.076Z,66.24
2023-02-11T20:51:41.065Z,66.79
2023-02-11T20:54:14.101Z,66.35
2023-02-11T20:56:42.258Z,67.67
2023-02-11T20:59:11.602Z,68.12
2023-02-11T21:01:43.174Z,69.03
2023-02-11T21:04:14.510Z,69.44
2023-02-11T21:06:44.908Z,69.33
2023-02-11T21:09:15.266Z,69.20
2023-02-11T21:11:43.436Z,68.30
2023-02-11T21:14:12.288Z,68.06
2023-02-11T21:16:40.921Z,68.08
2023-02-11T21:19:08.811Z,67.47
2023-02-11T21:21:38.722Z,68.13
2023-02-11T21:24:07.316Z,67.82
2023-02-11T21:26:36.117Z,67.18
2023-02-11T21:29:05.502Z,66.69
2023-02-11T21:31:36.575Z,67.06
2023-02-11T21:34:05.825Z,66.77
2023-02-11T21:36:33.814Z,67.02
2023-02-11T21:39:03.731Z,67.35
2023-02-11T21:41:31.625Z,68.12
2023-02-11T21:43:59.535Z,68.71
2023-02-11T21:46:27.774Z,68.67
2023-02-11T21:48:56.702Z,69.10
2023-02-11T21:51:26.207Z,68.85
2023-02-11T21:53:57.714Z,68.19
2023-02-11T21:56:27.935Z,68.13
2023-02-11T21:58:58.650Z,68.39
2023-02-11T22:01:30.220Z,69.12
2023-02-11T22:03:58.685Z,69.20
2023-02-11T22:06:31.479Z,67.97
2023-02-11T22:09:04.406Z,67.90
2023-02-11T22:11:32.286Z,67.29
2023-02-11T22:14:00.470Z,67.69
2023-02-11T22:16:29.396Z,68.44
2023-02-11T22:18:58.728Z,68.89
2023-02-11T22:21:26.634Z,69.37
2023-02-11T22:23:56.162Z,69.70
2023-02-11T22:26:25.720Z,69.25
2023-02-11T22:28:55.300Z,69.07
2023-02-11T22:31:27.209Z,69.19
2023-02-11T22:33:55.823Z,68.31
2023-02-11T22:36:27.772Z,68.23
2023-02-11T22:38:56.116Z,68.14
2023-02-11T22:41:24.162Z,67.80
2023-02-11T22:43:52.076Z,68.05
2023-02-11T22:46:20.606Z,67.71
2023-02-11T22:48:49.187Z,67.54
2023-02-11T22:51:21.111Z,67.14
2023-02-11T22:53:51.782Z,67.75
2023-02-11T22:56:20.223Z,68.65
2023-02-11T22:58:48.594Z,68.77
2023-02-11T23:01:17.322Z,68.85
2023-02-11T23:03:45.861Z,69.44
2023-02-11T23:06:14.260Z,68.95
2023-02-11T23:08:43.633Z,69.16
2023-02-11T23:11:16.692Z,69.29
2023-02-11T23:13:45.867Z,69.25
2023-02-11T23:16:18.279Z,68.43
2023-02-11T23:18:47.601Z,68.47
2023-02-11T23:21:19.241Z,68.07
2023-02-11T23:23:47.934Z,68.21
2023-02-11T23:26:18.377Z,68.37
2023-02-11T23:28:46.467Z,68.50
2023-02-11T23:31:19.726Z,70.16
2023-02-11T23:33:48.694Z,70.79
2023-02-11T23:36:17.929Z,70.55
2023-02-11T23:38:45.842Z,70.23
2023-02-11T23:41:14.182Z,70.31
2023-02-11T23:43:45.390Z,71.18
2023-02-11T23:46:13.306Z,71.41
2023-02-11T23:48:41.420Z,70.19
2023-02-11T23:51:09.790Z,69.65
2023-02-11T23:53:38.530Z,69.98
2023-02-11T23:56:09.816Z,70.65
2023-02-11T23:58:37.757Z,71.42
